createdAt,value
2023-03-10T00:04:55.238Z,91.20
2023-03-10T00:09:56.916Z,92.19
2023-03-10T00:14:58.341Z,92.34
2023-03-10T00:19:59.807Z,91.81
2023-03-10T00:25:01.244Z,91.72
2023-03-10T00:30:03.197Z,91.61
2023-03-10T00:35:06.248Z,91.64
2023-03-10T00:40:10.998Z,92.42
2023-03-10T00:45:12.528Z,92.78
2023-03-10T00:50:13.983Z,93.34
2023-03-10T00:55:15.452Z,93.26
2023-03-10T01:00:18.088Z,93.05
2023-03-10T01:05:20.064Z,92.92
2023-03-10T01:10:21.669Z,93.09
2023-03-10T01:15:23.199Z,93.21
2023-03-10T01:20:24.632Z,92.59
2023-03-10T01:25:26.759Z,92.50
2023-03-10T01:30:28.205Z,92.29
2023-03-10T01:35:31.043Z,93.10
2023-03-10T01:40:32.747Z,93.12
2023-03-10T01:45:34.121Z,93.83
2023-03-10T01:50:35.865Z,93.49
2023-03-10T01:55:42.235Z,94.06
2023-03-10T02:00:44.271Z,94.43
2023-03-10T02:05:50.153Z,93.94
2023-03-10T02:10:51.633Z,94.72
2023-03-10T02:15:53.249Z,94.85
2023-03-10T02:21:11.914Z,94.92
2023-03-10T02:26:24.100Z,95.19
2023-03-10T02:31:27.044Z,94.85
2023-03-10T02:36:28.576Z,96.16
2023-03-10T02:41:36.119Z,97.38
2023-03-10T02:46:37.979Z,97.66
2023-03-10T02:51:42.334Z,100.00
2023-03-10T02:56:43.986Z,99.77
2023-03-10T03:01:45.427Z,96.72
2023-03-10T03:06:47.793Z,96.16
2023-03-10T03:11:49.206Z,95.64
2023-03-10T03:16:50.682Z,96.11
2023-03-10T03:21:52.162Z,95.95
2023-03-10T03:26:53.611Z,96.28
2023-03-10T03:31:55.126Z,95.71
2023-03-10T03:36:56.681Z,94.65
2023-03-10T03:41:58.203Z,93.70
2023-03-10T03:46:59.642Z,93.73
2023-03-10T03:52:01.318Z,94.23
2023-03-10T03:57:02.787Z,93.80
2023-03-10T04:02:04.252Z,93.38
2023-03-10T04:07:05.705Z,93.81
2023-03-10T04:12:09.308Z,94.07
2023-03-10T04:17:12.264Z,92.47
2023-03-10T04:22:13.964Z,91.91
2023-03-10T04:27:15.626Z,91.14
2023-03-10T04:32:17.127Z,91.00
2023-03-10T04:37:20.607Z,91.29
2023-03-10T04:42:22.119Z,91.66
2023-03-10T04:47:23.532Z,90.76
2023-03-10T04:52:25.009Z,90.54
2023-03-10T04:57:26.475Z,90.35
2023-03-10T05:02:28.061Z,90.18
2023-03-10T05:07:29.661Z,89.88
2023-03-10T05:12:31.231Z,89.92
2023-03-10T05:17:32.654Z,89.46
2023-03-10T05:22:34.078Z,89.63
2023-03-10T05:27:37.212Z,89.41
2023-03-10T05:32:38.698Z,88.47
2023-03-10T05:37:42.743Z,89.53
2023-03-10T05:42:44.200Z,88.93
2023-03-10T05:47:48.842Z,89.47
2023-03-10T05:52:50.506Z,90.25
2023-03-10T05:57:52.048Z,89.52
2023-03-10T06:02:53.631Z,89.80
2023-03-10T06:07:55.146Z,89.44
2023-03-10T06:12:56.676Z,89.11
2023-03-10T06:17:58.133Z,88.45
2023-03-10T06:22:59.607Z,89.19
2023-03-10T06:28:01.077Z,88.61
2023-03-10T06:33:04.285Z,86.47
2023-03-10T06:38:05.712Z,86.68
2023-03-10T06:43:07.134Z,86.99
2023-03-10T06:48:08.710Z,86.90
2023-03-10T06:53:11.709Z,87.47
2023-03-10T06:58:13.202Z,87.60
2023-03-10T07:03:14.802Z,87.45
2023-03-10T07:08:16.263Z,87.05
2023-03-10T07:13:17.830Z,87.29
2023-03-10T07:18:19.346Z,86.09
2023-03-10T07:23:20.911Z,86.50
2023-03-10T07:28:23.520Z,86.34
2023-03-10T07:33:25.006Z,85.98
2023-03-10T07:38:26.505Z,85.31
2023-03-10T07:43:27.983Z,85.01
2023-03-10T07:48:29.561Z,85.43
2023-03-10T07:53:31.406Z,85.30
2023-03-10T07:58:33.394Z,84.60
2023-03-10T08:03:35.922Z,84.13
2023-03-10T08:08:37.460Z,84.22
2023-03-10T08:13:39.356Z,82.65
2023-03-10T08:18:41.586Z,81.95
2023-03-10T08:23:43.100Z,81.20
2023-03-10T08:28:44.992Z,82.62
2023-03-10T08:33:47.575Z,83.08
2023-03-10T08:38:51.368Z,82.52
2023-03-10T08:43:54.941Z,82.47
2023-03-10T08:48:56.994Z,82.38
2023-03-10T08:53:59.151Z,81.61
2023-03-10T08:59:00.946Z,80.81
2023-03-10T09:04:04.739Z,79.86
2023-03-10T09:09:07.905Z,80.26
2023-03-10T09:14:11.624Z,77.12
2023-03-10T09:19:13.044Z,75.08
2023-03-10T09:24:14.547Z,73.13
2023-03-10T09:29:16.302Z,72.98
2023-03-10T09:34:17.746Z,71.49
2023-03-10T09:39:19.259Z,70.50
2023-03-10T09:44:37.881Z,71.25
2023-03-10T09:49:51.602Z,70.76
2023-03-10T09:55:01.748Z,71.49
2023-03-10T10:00:10.938Z,71.86
2023-03-10T10:05:17.151Z,71.43
2023-03-10T10:10:31.116Z,71.60
2023-03-10T10:15:35.438Z,72.14
2023-03-10T10:21:00.348Z,72.52
2023-03-10T10:26:11.707Z,72.55
2023-03-10T10:31:22.444Z,72.09
2023-03-10T10:36:35.519Z,70.78
2023-03-10T10:41:37.081Z,70.57
2023-03-10T10:46:38.910Z,70.42
2023-03-10T10:51:40.714Z,69.85
2023-03-10T10:56:52.816Z,69.26
2023-03-10T11:01:56.702Z,68.88
2023-03-10T11:07:30.720Z,68.57
2023-03-10T11:12:38.955Z,68.05
2023-03-10T11:17:46.629Z,68.53
2023-03-10T11:23:25.993Z,66.50
2023-03-10T11:28:49.257Z,68.05
2023-03-10T11:34:10.225Z,67.58
2023-03-10T11:39:24.169Z,67.79
2023-03-10T11:44:36.769Z,67.98
2023-03-10T11:49:40.382Z,68.20
2023-03-10T11:54:54.370Z,67.44
2023-03-10T12:00:00.706Z,67.36
2023-03-10T12:05:20.962Z,67.38
2023-03-10T12:10:23.065Z,67.48
2023-03-10T12:15:29.105Z,66.67
2023-03-10T12:20:33.065Z,66.75
2023-03-10T12:25:37.507Z,67.50
2023-03-10T12:30:58.525Z,66.51
2023-03-10T12:36:06.092Z,65.64
2023-03-10T12:41:08.161Z,66.72
2023-03-10T12:46:18.726Z,66.77
2023-03-10T12:51:24.728Z,65.94
2023-03-10T12:56:58.162Z,65.69
2023-03-10T13:02:01.828Z,66.13
2023-03-10T13:07:04.208Z,66.25
2023-03-10T13:12:12.892Z,65.97
2023-03-10T13:17:26.971Z,66.13
2023-03-10T13:22:29.577Z,65.73
2023-03-10T13:27:34.282Z,64.93
2023-03-10T13:32:35.792Z,65.72
2023-03-10T13:37:37.309Z,65.05
2023-03-10T13:42:44.212Z,66.15
2023-03-10T13:47:47.306Z,64.56
2023-03-10T13:52:54.521Z,65.16
2023-03-10T13:57:57.567Z,64.48
2023-03-10T14:02:59.451Z,63.20
2023-03-10T14:08:01.190Z,63.24
2023-03-10T14:13:02.638Z,64.14
2023-03-10T14:18:06.904Z,65.28
2023-03-10T14:23:22.416Z,64.83
2023-03-10T14:28:27.362Z,65.02
2023-03-10T14:33:29.059Z,64.91
2023-03-10T14:38:30.504Z,63.22
2023-03-10T14:43:33.263Z,64.31
2023-03-10T14:48:39.081Z,64.30
2023-03-10T14:53:41.179Z,64.04
2023-03-10T14:58:50.555Z,63.94
2023-03-10T15:03:52.697Z,64.01
2023-03-10T15:08:54.236Z,64.46
2023-03-10T15:13:56.330Z,64.96
2023-03-10T15:18:57.828Z,65.68
2023-03-10T15:23:59.319Z,66.09
2023-03-10T15:29:00.738Z,66.45
2023-03-10T15:34:02.184Z,66.41
2023-03-10T15:39:05.209Z,66.51
2023-03-10T15:44:07.218Z,66.09
2023-03-10T15:49:08.653Z,65.34
2023-03-10T15:54:12.455Z,64.98
2023-03-10T15:59:13.935Z,65.38
2023-03-10T16:04:15.368Z,66.27
2023-03-10T16:09:16.814Z,66.56
2023-03-10T16:14:18.264Z,66.69
2023-03-10T16:19:20.072Z,66.62
2023-03-10T16:24:22.557Z,66.92
2023-03-10T16:29:24.108Z,67.11
2023-03-10T16:34:26.020Z,67.24
2023-03-10T16:39:30.933Z,67.17
2023-03-10T16:44:32.355Z,67.44
2023-03-10T16:49:34.282Z,67.63
2023-03-10T16:54:35.771Z,67.85
2023-03-10T16:59:37.214Z,68.07
2023-03-10T17:04:38.683Z,68.25
2023-03-10T17:09:40.110Z,68.29
2023-03-10T17:14:43.228Z,68.46
2023-03-10T17:19:44.655Z,68.48
2023-03-10T17:24:46.161Z,68.78
2023-03-10T17:29:48.469Z,69.65
2023-03-10T17:34:52.096Z,67.38
2023-03-10T17:39:54.523Z,70.04
2023-03-10T17:44:56.003Z,73.22
2023-03-10T17:50:00.024Z,74.52
2023-03-10T17:55:01.586Z,73.70
2023-03-10T18:00:04.047Z,73.29
2023-03-10T18:05:06.086Z,73.29
2023-03-10T18:10:08.587Z,73.65
2023-03-10T18:15:10.632Z,73.01
2023-03-10T18:20:14.552Z,72.70
2023-03-10T18:25:16.072Z,71.97
2023-03-10T18:30:17.814Z,70.11
2023-03-10T18:35:19.258Z,69.93
2023-03-10T18:40:20.797Z,69.02
2023-03-10T18:45:22.334Z,66.99
2023-03-10T18:50:23.811Z,66.28
2023-03-10T18:55:25.556Z,66.97
2023-03-10T19:00:27.609Z,67.82
2023-03-10T19:05:29.099Z,67.05
2023-03-10T19:10:30.646Z,67.51
2023-03-10T19:15:32.092Z,68.35
2023-03-10T19:20:33.512Z,68.33
2023-03-10T19:25:34.972Z,69.87
2023-03-10T19:30:36.664Z,71.16
2023-03-10T19:35:38.751Z,70.53
2023-03-10T19:40:40.387Z,70.91
2023-03-10T19:45:41.832Z,71.16
2023-03-10T19:50:52.994Z,71.29
2023-03-10T19:55:56.494Z,72.08
2023-03-10T20:00:58.808Z,72.26
2023-03-10T20:06:01.400Z,72.39
2023-03-10T20:11:03.389Z,72.33
2023-03-10T20:16:05.576Z,72.38
2023-03-10T20:21:07.452Z,73.13
2023-03-10T20:26:10.218Z,73.41
2023-03-10T20:31:16.854Z,73.69
2023-03-10T20:36:18.422Z,74.42
2023-03-10T20:41:20.874Z,74.25
2023-03-10T20:46:22.899Z,73.82
2023-03-10T20:51:24.401Z,75.45
2023-03-10T20:56:26.002Z,75.86
2023-03-10T21:01:28.949Z,75.70
2023-03-10T21:06:30.418Z,75.79
2023-03-10T21:11:33.486Z,75.93
2023-03-10T21:16:42.823Z,76.15
2023-03-10T21:21:44.365Z,75.44
2023-03-10T21:26:45.969Z,74.51
2023-03-10T21:31:47.532Z,74.70
2023-03-10T21:36:48.969Z,74.70
2023-03-10T21:41:50.639Z,75.34
2023-03-10T21:46:52.051Z,75.29
2023-03-10T21:51:53.494Z,76.06
2023-03-10T21:56:54.954Z,75.98
2023-03-10T22:01:56.457Z,76.44
2023-03-10T22:06:57.997Z,77.38
2023-03-10T22:11:59.416Z,77.85
2023-03-10T22:17:01.068Z,78.39
2023-03-10T22:22:02.748Z,78.67
2023-03-10T22:27:04.187Z,78.25
2023-03-10T22:32:06.397Z,78.10
2023-03-10T22:37:07.884Z,77.98
2023-03-10T22:42:10.588Z,77.49
2023-03-10T22:47:12.016Z,77.67
2023-03-10T22:52:13.466Z,77.18
2023-03-10T22:57:15.241Z,77.21
2023-03-10T23:02:16.796Z,76.58
2023-03-10T23:07:18.306Z,77.39
2023-03-10T23:12:20.343Z,77.88
2023-03-10T23:17:21.847Z,77.62
2023-03-10T23:22:23.741Z,78.15
2023-03-10T23:27:25.218Z,77.94
2023-03-10T23:32:26.660Z,77.82
2023-03-10T23:37:28.116Z,77.13
2023-03-10T23:42:29.549Z,77.38
2023-03-10T23:47:31.603Z,77.91
2023-03-10T23:52:33.082Z,77.35
2023-03-10T23:57:34.519Z,76.81
